Time;durP1;ratioP1;P1;durP2;ratioP2;P2;SDS_P1;SDS_P2;PMS_P1;PMS_P2;Temp;Humidity;BMP_temperature;BMP_pressure;BME280_temperature;BME280_humidity;BME280_pressure;Samples;Min_cycle;Max_cycle;Signal;HPM_P1;HPM_P2
2023/04/27 00:02:00;;;;;;;4.38;2.92;;;;;;;;;;5093705;28;20202;-39
2023/04/27 00:04:28;;;;;;;8.77;3.17;;;;;;;;;;5093857;28;20716;-41
2023/04/27 00:06:55;;;;;;;5.93;2.78;;;;;;;;;;5093928;28;20198;-41
2023/04/27 00:09:22;;;;;;;5.38;2.88;;;;;;;;;;5093805;28;20720;-41
2023/04/27 00:11:50;;;;;;;6.30;2.90;;;;;;;;;;5093505;28;20279;-41
2023/04/27 00:14:17;;;;;;;4.80;2.47;;;;;;;;;;5093728;28;20232;-42
2023/04/27 00:16:44;;;;;;;8.80;3.40;;;;;;;;;;5093628;28;20198;-40
2023/04/27 00:19:12;;;;;;;6.50;3.28;;;;;;;;;;5093581;28;20230;-40
2023/04/27 00:21:40;;;;;;;10.77;3.05;;;;;;;;;;5093816;28;20558;-40
2023/04/27 00:24:07;;;;;;;8.20;3.17;;;;;;;;;;5092326;28;20673;-39
2023/04/27 00:26:35;;;;;;;5.72;3.03;;;;;;;;;;5093611;28;20614;-41
2023/04/27 00:29:02;;;;;;;9.85;2.97;;;;;;;;;;5093646;28;20210;-41
2023/04/27 00:31:29;;;;;;;11.10;3.53;;;;;;;;;;5093327;28;20720;-41
2023/04/27 00:33:56;;;;;;;6.32;2.92;;;;;;;;;;5092684;28;20209;-41
2023/04/27 00:36:24;;;;;;;5.95;3.15;;;;;;;;;;5093412;28;20232;-42
2023/04/27 00:38:52;;;;;;;9.05;3.25;;;;;;;;;;5093762;28;20720;-41
2023/04/27 00:41:19;;;;;;;10.57;3.28;;;;;;;;;;5092184;28;20682;-41
2023/04/27 00:43:46;;;;;;;6.15;3.20;;;;;;;;;;5092305;28;20226;-40
2023/04/27 00:46:14;;;;;;;4.50;2.90;;;;;;;;;;5093625;28;20210;-40
2023/04/27 00:48:41;;;;;;;4.45;2.58;;;;;;;;;;5093599;28;20198;-41
2023/04/27 00:51:09;;;;;;;8.18;3.35;;;;;;;;;;5093554;28;20226;-41
2023/04/27 00:53:36;;;;;;;10.15;3.75;;;;;;;;;;5093280;28;20286;-40
2023/04/27 00:56:05;;;;;;;6.70;2.95;;;;;;;;;;5092276;28;20214;-42
2023/04/27 00:58:32;;;;;;;4.70;3.00;;;;;;;;;;5111533;28;20288;-41
2023/04/27 01:01:00;;;;;;;8.23;3.05;;;;;;;;;;5111462;28;20209;-40
2023/04/27 01:03:27;;;;;;;7.03;2.80;;;;;;;;;;5094881;28;20214;-41
2023/04/27 01:05:55;;;;;;;5.68;2.92;;;;;;;;;;5111519;28;20198;-40
2023/04/27 01:08:23;;;;;;;5.90;2.97;;;;;;;;;;5094429;28;20214;-40
2023/04/27 01:10:50;;;;;;;8.13;3.13;;;;;;;;;;5114180;28;20713;-40
2023/04/27 01:13:17;;;;;;;5.10;2.50;;;;;;;;;;5098275;28;20213;-40
2023/04/27 01:15:45;;;;;;;9.10;3.55;;;;;;;;;;5115384;28;20235;-41
2023/04/27 01:18:12;;;;;;;3.55;2.53;;;;;;;;;;5115347;28;20202;-40
2023/04/27 01:20:41;;;;;;;7.00;3.17;;;;;;;;;;5115267;28;20231;-40
2023/04/27 01:23:15;;;;;;;7.57;3.28;;;;;;;;;;5115183;28;20596;-42
2023/04/27 01:25:43;;;;;;;4.22;2.90;;;;;;;;;;5098291;28;20214;-40
2023/04/27 01:28:11;;;;;;;7.20;3.55;;;;;;;;;;5115014;28;20279;-40
2023/04/27 01:30:38;;;;;;;7.28;3.75;;;;;;;;;;5097790;28;20199;-40
2023/04/27 01:33:05;;;;;;;10.57;4.72;;;;;;;;;;5096819;28;20285;-40
2023/04/27 01:35:32;;;;;;;13.13;5.22;;;;;;;;;;5096778;28;20198;-40
2023/04/27 01:38:00;;;;;;;12.52;4.97;;;;;;;;;;5096739;28;20237;-41
2023/04/27 01:40:28;;;;;;;9.38;4.70;;;;;;;;;;5095620;28;20217;-40
2023/04/27 01:42:55;;;;;;;20.10;7.28;;;;;;;;;;5096779;28;20203;-41
2023/04/27 01:45:23;;;;;;;10.73;4.95;;;;;;;;;;5095474;28;20281;-40
2023/04/27 01:47:51;;;;;;;10.57;4.07;;;;;;;;;;5096573;28;20206;-40
2023/04/27 01:50:19;;;;;;;8.05;3.50;;;;;;;;;;5095050;28;20213;-41
2023/04/27 01:52:46;;;;;;;8.07;3.90;;;;;;;;;;5095032;28;20219;-40
2023/04/27 01:55:14;;;;;;;5.85;3.25;;;;;;;;;;5096549;28;20206;-40
2023/04/27 01:57:41;;;;;;;5.15;2.75;;;;;;;;;;5095001;28;20198;-40
2023/04/27 02:00:10;;;;;;;9.20;3.50;;;;;;;;;;5095303;28;20486;-39
2023/04/27 02:02:52;;;;;;;6.07;3.30;;;;;;;;;;5096328;28;20183;-39
2023/04/27 02:05:19;;;;;;;5.25;3.17;;;;;;;;;;5096257;28;20264;-40
2023/04/27 02:07:48;;;;;;;7.05;3.45;;;;;;;;;;5095392;28;20229;-40
2023/04/27 02:10:15;;;;;;;6.38;3.55;;;;;;;;;;5095927;28;20202;-40
2023/04/27 02:12:43;;;;;;;7.65;4.25;;;;;;;;;;5095915;28;20317;-40
2023/04/27 02:15:11;;;;;;;6.45;3.67;;;;;;;;;;5095995;28;20198;-40
2023/04/27 02:17:38;;;;;;;7.68;4.13;;;;;;;;;;5094438;28;20666;-40
2023/04/27 02:20:07;;;;;;;7.90;3.25;;;;;;;;;;5095722;28;20264;-40
2023/04/27 02:22:34;;;;;;;8.60;3.05;;;;;;;;;;5095972;28;20207;-40
2023/04/27 02:25:02;;;;;;;9.82;3.90;;;;;;;;;;5095887;28;20198;-40
2023/04/27 02:27:29;;;;;;;5.38;3.08;;;;;;;;;;5094780;28;20199;-40
2023/04/27 02:29:57;;;;;;;8.10;3.72;;;;;;;;;;5094431;28;20217;-40
2023/04/27 02:32:24;;;;;;;6.55;3.28;;;;;;;;;;5094606;28;20222;-40
2023/04/27 02:34:52;;;;;;;8.30;3.90;;;;;;;;;;5095515;28;20207;-41
2023/04/27 02:37:19;;;;;;;9.77;3.60;;;;;;;;;;5095474;28;20269;-41
2023/04/27 02:39:46;;;;;;;5.15;2.63;;;;;;;;;;5094323;28;20199;-41
2023/04/27 02:42:15;;;;;;;6.85;3.28;;;;;;;;;;5095115;28;20255;-42
2023/04/27 02:44:42;;;;;;;8.13;4.03;;;;;;;;;;5093844;28;20195;-40
2023/04/27 02:47:10;;;;;;;5.30;3.20;;;;;;;;;;5095203;28;20255;-40
2023/04/27 02:49:37;;;;;;;6.28;3.47;;;;;;;;;;5094915;28;20673;-40
2023/04/27 02:52:05;;;;;;;9.38;3.55;;;;;;;;;;5094831;28;20223;-41
2023/04/27 02:54:33;;;;;;;12.13;4.05;;;;;;;;;;5094968;28;20194;-40
2023/04/27 02:57:00;;;;;;;8.98;3.97;;;;;;;;;;5093882;28;20244;-41
2023/04/27 02:59:27;;;;;;;4.80;2.97;;;;;;;;;;5093595;28;20252;-40
2023/04/27 03:01:54;;;;;;;6.32;3.22;;;;;;;;;;5093887;28;20210;-40
2023/04/27 03:04:22;;;;;;;29.30;10.55;;;;;;;;;;5093420;28;20230;-41
2023/04/27 03:06:49;;;;;;;15.60;7.30;;;;;;;;;;5093757;28;20255;-41
2023/04/27 03:09:16;;;;;;;10.47;4.10;;;;;;;;;;5109720;28;20203;-40
2023/04/27 03:11:44;;;;;;;23.02;8.50;;;;;;;;;;5093524;28;20238;-41
2023/04/27 03:14:12;;;;;;;8.00;4.00;;;;;;;;;;5087727;28;20211;-41
2023/04/27 03:16:39;;;;;;;6.85;3.30;;;;;;;;;;5081284;28;20203;-41
2023/04/27 03:19:07;;;;;;;7.40;3.65;;;;;;;;;;5074188;28;20203;-41
2023/04/27 03:21:34;;;;;;;11.35;3.88;;;;;;;;;;5094554;28;20202;-40
2023/04/27 03:24:02;;;;;;;6.60;3.33;;;;;;;;;;5093401;28;20205;-41
2023/04/27 03:26:29;;;;;;;7.55;2.85;;;;;;;;;;5092955;28;20207;-41
2023/04/27 03:28:56;;;;;;;5.70;3.08;;;;;;;;;;5093395;28;20531;-40
2023/04/27 03:31:27;;;;;;;6.38;3.15;;;;;;;;;;5094301;28;20206;-40
2023/04/27 03:33:54;;;;;;;6.57;3.40;;;;;;;;;;5093467;28;20198;-41
2023/04/27 03:36:22;;;;;;;6.25;3.45;;;;;;;;;;5090533;28;20198;-41
2023/04/27 03:38:49;;;;;;;6.53;3.27;;;;;;;;;;5079731;28;20239;-39
2023/04/27 03:41:16;;;;;;;5.85;3.20;;;;;;;;;;5073422;28;20203;-41
2023/04/27 03:43:44;;;;;;;4.57;3.00;;;;;;;;;;5075560;28;20198;-40
2023/04/27 03:46:11;;;;;;;4.72;2.88;;;;;;;;;;5081169;28;20203;-40
2023/04/27 03:48:39;;;;;;;9.20;2.97;;;;;;;;;;5114342;27;20237;-39
2023/04/27 03:51:07;;;;;;;4.70;2.90;;;;;;;;;;5085421;28;20219;-41
2023/04/27 03:53:35;;;;;;;6.70;3.28;;;;;;;;;;5092178;28;20234;-41
2023/04/27 03:56:02;;;;;;;6.07;2.78;;;;;;;;;;5093177;28;20264;-41
2023/04/27 03:58:29;;;;;;;4.00;2.87;;;;;;;;;;5092191;28;20261;-39
2023/04/27 04:01:17;;;;;;;5.88;2.85;;;;;;;;;;5092178;28;20233;-40
2023/04/27 04:03:46;;;;;;;6.60;2.78;;;;;;;;;;5091986;28;20276;-39
2023/04/27 04:06:14;;;;;;;4.35;2.60;;;;;;;;;;5092410;28;20231;-39
2023/04/27 04:08:41;;;;;;;5.25;3.03;;;;;;;;;;5092249;28;20226;-39
2023/04/27 04:11:09;;;;;;;6.87;3.30;;;;;;;;;;5091953;28;20219;-40
2023/04/27 04:13:36;;;;;;;6.88;3.17;;;;;;;;;;5091873;28;20240;-39
2023/04/27 04:16:08;;;;;;;8.45;3.63;;;;;;;;;;5091851;28;20721;-39
2023/04/27 04:18:35;;;;;;;10.75;3.92;;;;;;;;;;5091936;28;20222;-41
2023/04/27 04:21:05;;;;;;;6.97;3.55;;;;;;;;;;5092954;28;20226;-39
2023/04/27 04:23:32;;;;;;;8.30;3.67;;;;;;;;;;5085243;28;20219;-41
2023/04/27 04:26:00;;;;;;;6.78;3.13;;;;;;;;;;5079356;28;20227;-39
2023/04/27 04:28:32;;;;;;;7.57;3.63;;;;;;;;;;5071749;28;20225;-42
2023/04/27 04:31:04;;;;;;;6.72;4.43;;;;;;;;;;5072552;28;20219;-40
2023/04/27 04:33:32;;;;;;;12.60;3.92;;;;;;;;;;5071608;28;20230;-42
2023/04/27 04:36:02;;;;;;;9.15;3.80;;;;;;;;;;5074996;28;20217;-41
2023/04/27 04:38:31;;;;;;;5.68;3.00;;;;;;;;;;5093009;28;20238;-40
2023/04/27 04:40:59;;;;;;;17.40;9.27;;;;;;;;;;5075093;28;20227;-43
2023/04/27 04:43:30;;;;;;;5.65;2.90;;;;;;;;;;5090422;28;20225;-40
2023/04/27 04:46:00;;;;;;;7.03;3.78;;;;;;;;;;5081626;28;20231;-40
2023/04/27 04:48:28;;;;;;;9.00;3.97;;;;;;;;;;5076547;28;20577;-40
2023/04/27 04:50:56;;;;;;;5.80;2.83;;;;;;;;;;5077846;28;20211;-41
2023/04/27 04:53:23;;;;;;;7.25;2.90;;;;;;;;;;5095503;28;20712;-40
2023/04/27 04:55:50;;;;;;;5.63;2.45;;;;;;;;;;5094250;28;20195;-41
2023/04/27 04:58:17;;;;;;;4.65;2.60;;;;;;;;;;5096269;28;20194;-41
2023/04/27 05:00:44;;;;;;;6.28;2.95;;;;;;;;;;5092889;28;20186;-41
2023/04/27 05:03:11;;;;;;;6.55;2.58;;;;;;;;;;5092881;28;20553;-41
2023/04/27 05:05:39;;;;;;;5.40;2.38;;;;;;;;;;5091629;28;20191;-41
2023/04/27 05:08:06;;;;;;;6.63;3.08;;;;;;;;;;5094161;28;20202;-42
2023/04/27 05:10:33;;;;;;;9.88;3.13;;;;;;;;;;5094098;28;20210;-41
2023/04/27 05:13:00;;;;;;;4.18;2.80;;;;;;;;;;5094691;28;20222;-41
2023/04/27 05:15:27;;;;;;;3.87;2.20;;;;;;;;;;5095041;28;20692;-41
2023/04/27 05:17:54;;;;;;;3.75;1.98;;;;;;;;;;5095562;28;20194;-41
2023/04/27 05:20:21;;;;;;;4.90;2.22;;;;;;;;;;5095981;28;20191;-40
2023/04/27 05:22:48;;;;;;;4.32;2.13;;;;;;;;;;5095795;28;20202;-40
2023/04/27 05:25:16;;;;;;;5.00;2.30;;;;;;;;;;5095656;28;20199;-41
2023/04/27 05:27:42;;;;;;;6.70;2.00;;;;;;;;;;5096450;28;20601;-39
2023/04/27 05:30:10;;;;;;;6.05;2.42;;;;;;;;;;5095163;28;20654;-40
2023/04/27 05:32:38;;;;;;;4.13;2.65;;;;;;;;;;5095602;28;20215;-39
2023/04/27 05:35:06;;;;;;;3.75;2.65;;;;;;;;;;5096554;28;20202;-39
2023/04/27 05:37:33;;;;;;;5.97;2.53;;;;;;;;;;5096624;28;20227;-40
2023/04/27 05:40:00;;;;;;;4.15;2.20;;;;;;;;;;5096955;28;20202;-40
2023/04/27 05:42:27;;;;;;;3.80;1.88;;;;;;;;;;5096730;28;20731;-40
2023/04/27 05:44:55;;;;;;;6.28;1.88;;;;;;;;;;5096431;28;20678;-40
2023/04/27 05:47:22;;;;;;;4.45;2.33;;;;;;;;;;5096368;28;20723;-40
2023/04/27 05:49:51;;;;;;;3.95;1.80;;;;;;;;;;5096556;28;20214;-39
2023/04/27 05:52:19;;;;;;;4.25;1.70;;;;;;;;;;5096285;28;20633;-39
2023/04/27 05:54:47;;;;;;;2.72;1.92;;;;;;;;;;5096262;28;20203;-40
2023/04/27 05:57:14;;;;;;;5.28;1.98;;;;;;;;;;5095784;28;20661;-40
2023/04/27 05:59:42;;;;;;;3.25;2.00;;;;;;;;;;5096461;28;20202;-40
2023/04/27 06:02:09;;;;;;;5.50;2.00;;;;;;;;;;5073735;28;20203;-41
2023/04/27 06:04:36;;;;;;;3.42;1.70;;;;;;;;;;5073526;28;20238;-40
2023/04/27 06:07:10;;;;;;;4.30;1.67;;;;;;;;;;5073682;28;20207;-40
2023/04/27 06:09:38;;;;;;;4.38;1.60;;;;;;;;;;5074034;28;20207;-41
2023/04/27 06:12:05;;;;;;;3.47;1.77;;;;;;;;;;5073516;28;20204;-40
2023/04/27 06:14:34;;;;;;;6.13;1.73;;;;;;;;;;5073604;28;20241;-40
2023/04/27 06:17:02;;;;;;;3.38;1.52;;;;;;;;;;5073523;28;20200;-40
2023/04/27 06:19:30;;;;;;;2.42;1.30;;;;;;;;;;5073551;28;20203;-39
2023/04/27 06:21:57;;;;;;;2.47;1.10;;;;;;;;;;5073502;28;20199;-40
2023/04/27 06:24:24;;;;;;;3.10;1.05;;;;;;;;;;5073432;28;20199;-40
2023/04/27 06:26:51;;;;;;;2.13;1.42;;;;;;;;;;5073356;28;20703;-40
2023/04/27 06:29:18;;;;;;;5.25;1.35;;;;;;;;;;5073322;28;20210;-40
2023/04/27 06:31:46;;;;;;;3.13;1.30;;;;;;;;;;5073267;28;20237;-40
2023/04/27 06:34:13;;;;;;;1.98;1.25;;;;;;;;;;5073163;28;20230;-40
2023/04/27 06:36:40;;;;;;;2.30;1.02;;;;;;;;;;5073237;28;20231;-40
2023/04/27 06:39:08;;;;;;;1.85;1.08;;;;;;;;;;5079780;28;20253;-40
2023/04/27 06:41:34;;;;;;;3.72;1.20;;;;;;;;;;5095728;28;20198;-40
2023/04/27 06:44:02;;;;;;;3.13;1.10;;;;;;;;;;5095638;28;20202;-40
2023/04/27 06:46:29;;;;;;;1.75;0.88;;;;;;;;;;5095194;28;20678;-40
2023/04/27 06:48:56;;;;;;;4.15;0.88;;;;;;;;;;5095575;28;20226;-40
2023/04/27 06:51:23;;;;;;;3.65;1.00;;;;;;;;;;5095469;28;20565;-40
2023/04/27 06:53:51;;;;;;;2.30;1.20;;;;;;;;;;5095182;28;20218;-40
2023/04/27 06:56:21;;;;;;;1.77;0.90;;;;;;;;;;5095253;28;20199;-40
2023/04/27 06:58:48;;;;;;;1.77;0.90;;;;;;;;;;5095379;28;20260;-40
2023/04/27 07:01:15;;;;;;;4.45;0.93;;;;;;;;;;5094968;28;20199;-39
2023/04/27 07:03:42;;;;;;;1.02;0.70;;;;;;;;;;5095371;28;20214;-40
2023/04/27 07:06:10;;;;;;;1.35;0.65;;;;;;;;;;5095222;28;20199;-40
2023/04/27 07:08:37;;;;;;;1.67;0.63;;;;;;;;;;5094072;28;20206;-40
2023/04/27 07:11:04;;;;;;;0.73;0.60;;;;;;;;;;5094941;28;20252;-40
2023/04/27 07:13:32;;;;;;;2.83;1.42;;;;;;;;;;5094748;28;20234;-41
2023/04/27 07:16:00;;;;;;;19.65;7.72;;;;;;;;;;5094995;28;20332;-40
2023/04/27 07:18:27;;;;;;;3.90;1.40;;;;;;;;;;5094680;28;20210;-40
2023/04/27 07:20:56;;;;;;;6.25;2.10;;;;;;;;;;5094603;28;20201;-40
2023/04/27 07:23:24;;;;;;;1.58;1.00;;;;;;;;;;5094706;28;20213;-40
2023/04/27 07:25:51;;;;;;;1.77;0.90;;;;;;;;;;5094503;28;20572;-40
2023/04/27 07:28:19;;;;;;;0.82;0.82;;;;;;;;;;5094426;28;20207;-40
2023/04/27 07:30:45;;;;;;;0.70;0.68;;;;;;;;;;5109511;28;20199;-40
2023/04/27 07:33:13;;;;;;;2.20;1.00;;;;;;;;;;5094580;28;20231;-42
2023/04/27 07:35:40;;;;;;;1.13;0.80;;;;;;;;;;5094336;28;20655;-40
2023/04/27 07:38:08;;;;;;;1.10;0.88;;;;;;;;;;5094677;28;20703;-40
2023/04/27 07:40:35;;;;;;;1.38;0.88;;;;;;;;;;5094261;28;20198;-40
2023/04/27 07:43:04;;;;;;;0.93;0.70;;;;;;;;;;5094551;28;20229;-40
2023/04/27 07:45:31;;;;;;;3.42;0.90;;;;;;;;;;5094387;28;20206;-40
2023/04/27 07:48:00;;;;;;;0.98;0.70;;;;;;;;;;5094313;28;20221;-40
2023/04/27 07:50:29;;;;;;;1.98;0.70;;;;;;;;;;5094199;28;20202;-41
2023/04/27 07:52:57;;;;;;;0.90;0.80;;;;;;;;;;5094261;28;20230;-40
2023/04/27 07:55:25;;;;;;;2.00;0.70;;;;;;;;;;5093917;28;20936;-40
2023/04/27 07:57:53;;;;;;;2.25;0.63;;;;;;;;;;5094427;28;20230;-40
2023/04/27 08:00:21;;;;;;;2.47;0.70;;;;;;;;;;5093968;28;20662;-40
2023/04/27 08:02:49;;;;;;;3.10;0.70;;;;;;;;;;5094238;28;20211;-40
2023/04/27 08:05:17;;;;;;;1.67;0.80;;;;;;;;;;5093972;28;20286;-40
2023/04/27 08:07:45;;;;;;;0.70;0.70;;;;;;;;;;5093850;28;20200;-40
2023/04/27 08:10:14;;;;;;;1.50;0.88;;;;;;;;;;5093767;28;20667;-40
2023/04/27 08:12:41;;;;;;;1.50;0.85;;;;;;;;;;5093692;28;20203;-40
2023/04/27 08:15:09;;;;;;;1.20;0.95;;;;;;;;;;5093900;28;20245;-40
2023/04/27 08:17:39;;;;;;;1.05;0.90;;;;;;;;;;5093687;28;20677;-40
2023/04/27 08:20:11;;;;;;;0.70;0.60;;;;;;;;;;5093335;28;20742;-41
2023/04/27 08:22:39;;;;;;;3.25;0.77;;;;;;;;;;5093723;28;20732;-40
2023/04/27 08:25:07;;;;;;;0.75;0.60;;;;;;;;;;5093869;28;20206;-40
2023/04/27 08:27:38;;;;;;;0.50;0.50;;;;;;;;;;5093571;28;20663;-40
2023/04/27 08:30:07;;;;;;;1.70;0.80;;;;;;;;;;5093504;28;20244;-40
2023/04/27 08:32:35;;;;;;;0.80;0.70;;;;;;;;;;5093391;28;20248;-41
2023/04/27 08:35:02;;;;;;;6.85;1.00;;;;;;;;;;5093812;28;20198;-40
2023/04/27 08:37:30;;;;;;;0.60;0.55;;;;;;;;;;5093534;28;20230;-40
2023/04/27 08:39:58;;;;;;;2.08;0.77;;;;;;;;;;5093736;28;20256;-40
2023/04/27 08:42:25;;;;;;;1.85;0.80;;;;;;;;;;5093558;28;20210;-40
2023/04/27 08:44:52;;;;;;;2.78;0.80;;;;;;;;;;5093499;28;20723;-40
2023/04/27 08:47:20;;;;;;;0.85;0.73;;;;;;;;;;5093590;28;20199;-42
2023/04/27 08:50:00;;;;;;;1.17;0.68;;;;;;;;;;5093412;28;20550;-42
2023/04/27 08:52:27;;;;;;;0.55;0.55;;;;;;;;;;5092420;28;20585;-40
2023/04/27 08:54:54;;;;;;;1.45;0.90;;;;;;;;;;5093269;28;20226;-40
2023/04/27 08:57:22;;;;;;;1.67;0.85;;;;;;;;;;5093407;28;20214;-40
2023/04/27 09:00:10;;;;;;;0.55;0.55;;;;;;;;;;5093197;28;20719;-40
2023/04/27 09:02:45;;;;;;;1.10;0.73;;;;;;;;;;5093676;28;20611;-40
2023/04/27 09:05:21;;;;;;;0.68;0.50;;;;;;;;;;5093325;28;20586;-40
2023/04/27 09:07:58;;;;;;;0.70;0.70;;;;;;;;;;5093229;28;20221;-40
2023/04/27 09:10:28;;;;;;;1.02;0.70;;;;;;;;;;5093119;28;20293;-40
2023/04/27 09:12:57;;;;;;;0.60;0.50;;;;;;;;;;5093800;28;20206;-41
2023/04/27 09:15:24;;;;;;;1.00;0.80;;;;;;;;;;5093048;28;20210;-41
2023/04/27 09:17:55;;;;;;;1.67;0.60;;;;;;;;;;5093548;28;20217;-40
2023/04/27 09:20:23;;;;;;;1.02;0.70;;;;;;;;;;5093136;28;20199;-40
2023/04/27 09:22:53;;;;;;;1.40;0.75;;;;;;;;;;5093089;28;20206;-41
2023/04/27 09:25:28;;;;;;;2.17;0.88;;;;;;;;;;5093032;28;20655;-40
2023/04/27 09:27:57;;;;;;;2.05;1.10;;;;;;;;;;5093065;28;20202;-40
2023/04/27 09:30:25;;;;;;;0.60;0.57;;;;;;;;;;5092448;28;20666;-41
2023/04/27 09:32:59;;;;;;;0.85;0.70;;;;;;;;;;5097082;28;20199;-40
2023/04/27 09:35:28;;;;;;;0.63;0.60;;;;;;;;;;5097065;28;20576;-40
2023/04/27 09:37:56;;;;;;;1.30;0.82;;;;;;;;;;5096604;28;20276;-41
2023/04/27 09:40:26;;;;;;;1.85;0.65;;;;;;;;;;5096512;28;20256;-40
2023/04/27 09:43:02;;;;;;;1.25;0.70;;;;;;;;;;5096635;28;20202;-40
2023/04/27 09:45:32;;;;;;;2.80;1.20;;;;;;;;;;5096647;28;20331;-40
2023/04/27 09:48:00;;;;;;;1.02;0.90;;;;;;;;;;5096544;28;20281;-40
2023/04/27 09:50:27;;;;;;;1.85;1.10;;;;;;;;;;5095422;28;20225;-41
2023/04/27 09:52:55;;;;;;;1.55;1.10;;;;;;;;;;5096530;28;20194;-40
2023/04/27 09:55:36;;;;;;;2.35;1.00;;;;;;;;;;5096395;28;20205;-40
2023/04/27 09:58:31;;;;;;;4.03;1.30;;;;;;;;;;5096432;28;20190;-41
2023/04/27 10:01:23;;;;;;;1.10;1.00;;;;;;;;;;5094954;28;20209;-40
2023/04/27 10:04:05;;;;;;;1.88;0.88;;;;;;;;;;5096300;28;20210;-41
2023/04/27 10:06:33;;;;;;;1.33;0.93;;;;;;;;;;5096218;28;20194;-40
2023/04/27 10:09:05;;;;;;;1.00;0.93;;;;;;;;;;5096027;28;20671;-41
2023/04/27 10:11:39;;;;;;;1.05;0.70;;;;;;;;;;5096073;28;20248;-40
2023/04/27 10:14:08;;;;;;;1.90;1.10;;;;;;;;;;5096335;28;20214;-40
2023/04/27 10:16:55;;;;;;;2.13;0.68;;;;;;;;;;5095897;28;20213;-40
2023/04/27 10:19:23;;;;;;;1.38;1.00;;;;;;;;;;5096147;28;20199;-40
2023/04/27 10:22:04;;;;;;;2.55;1.00;;;;;;;;;;5095985;28;20207;-40
2023/04/27 10:24:40;;;;;;;1.85;0.95;;;;;;;;;;5095806;28;20206;-41
2023/04/27 10:27:08;;;;;;;1.65;0.85;;;;;;;;;;5095807;28;20202;-41
2023/04/27 10:29:42;;;;;;;2.83;0.88;;;;;;;;;;5095773;28;20199;-40
2023/04/27 10:32:11;;;;;;;1.33;0.77;;;;;;;;;;5095959;28;20189;-40
2023/04/27 10:34:39;;;;;;;1.27;1.00;;;;;;;;;;5095780;28;20226;-40
2023/04/27 10:37:08;;;;;;;2.90;1.30;;;;;;;;;;5093513;28;20646;-40
2023/04/27 10:39:40;;;;;;;2.05;1.08;;;;;;;;;;5095492;28;20642;-40
2023/04/27 10:42:27;;;;;;;1.63;0.90;;;;;;;;;;5095143;28;20651;-41
2023/04/27 10:44:56;;;;;;;1.48;1.20;;;;;;;;;;5095390;28;20630;-40
2023/04/27 10:47:23;;;;;;;4.53;0.98;;;;;;;;;;5095326;28;20198;-40
2023/04/27 10:49:53;;;;;;;2.97;1.08;;;;;;;;;;5095475;28;20282;-40
2023/04/27 10:52:20;;;;;;;1.60;0.88;;;;;;;;;;5095148;28;20285;-40
2023/04/27 10:54:47;;;;;;;1.65;0.95;;;;;;;;;;5095342;28;20222;-40
2023/04/27 10:57:15;;;;;;;4.00;1.23;;;;;;;;;;5095404;28;20251;-41
2023/04/27 10:59:54;;;;;;;1.55;1.30;;;;;;;;;;5095124;28;20740;-39
2023/04/27 11:02:25;;;;;;;2.30;1.27;;;;;;;;;;5095117;28;20289;-41
2023/04/27 11:04:55;;;;;;;1.35;1.25;;;;;;;;;;5095028;28;20230;-40
2023/04/27 11:07:26;;;;;;;3.58;1.35;;;;;;;;;;5095003;28;20671;-40
2023/04/27 11:09:53;;;;;;;2.47;1.20;;;;;;;;;;5095207;28;20203;-40
2023/04/27 11:12:21;;;;;;;2.90;1.77;;;;;;;;;;5093591;28;20206;-40
2023/04/27 11:14:48;;;;;;;3.28;2.22;;;;;;;;;;5094740;28;20233;-40
2023/04/27 11:17:15;;;;;;;2.42;1.38;;;;;;;;;;5094795;28;20202;-41
2023/04/27 11:19:48;;;;;;;2.28;1.50;;;;;;;;;;5094998;28;20199;-40
2023/04/27 11:22:16;;;;;;;1.85;1.23;;;;;;;;;;5094999;28;20221;-40
2023/04/27 11:24:50;;;;;;;3.40;1.98;;;;;;;;;;5094542;28;20647;-40
2023/04/27 11:27:20;;;;;;;1.92;1.35;;;;;;;;;;5094547;28;20191;-41
2023/04/27 11:29:48;;;;;;;1.67;1.27;;;;;;;;;;5094797;28;20190;-40
2023/04/27 11:32:22;;;;;;;3.03;1.50;;;;;;;;;;5094726;28;20237;-40
2023/04/27 11:34:50;;;;;;;3.42;1.70;;;;;;;;;;5094383;28;20686;-41
2023/04/27 11:37:26;;;;;;;1.77;1.45;;;;;;;;;;5094440;28;20234;-40
2023/04/27 11:39:54;;;;;;;1.90;1.35;;;;;;;;;;5094470;28;20203;-40
2023/04/27 11:42:23;;;;;;;2.33;1.60;;;;;;;;;;5094307;28;20194;-40
2023/04/27 11:45:04;;;;;;;2.35;1.35;;;;;;;;;;5093596;28;20203;-43
2023/04/27 11:47:32;;;;;;;2.55;1.60;;;;;;;;;;5091298;28;20203;-43
2023/04/27 11:50:03;;;;;;;2.58;1.45;;;;;;;;;;5090625;28;20195;-44
2023/04/27 11:52:32;;;;;;;2.22;1.65;;;;;;;;;;5092847;28;20194;-43
2023/04/27 11:55:00;;;;;;;4.57;2.00;;;;;;;;;;5089583;28;20301;-43
2023/04/27 11:57:30;;;;;;;3.05;1.90;;;;;;;;;;5092613;28;20568;-42
2023/04/27 12:00:01;;;;;;;1.75;1.52;;;;;;;;;;5092777;28;20551;-43
2023/04/27 12:02:39;;;;;;;2.47;1.67;;;;;;;;;;5091580;28;20277;-43
2023/04/27 12:05:08;;;;;;;1.90;1.55;;;;;;;;;;5085104;28;20203;-44
2023/04/27 12:07:36;;;;;;;3.72;1.48;;;;;;;;;;5090949;28;20199;-44
2023/04/27 12:10:05;;;;;;;2.65;1.88;;;;;;;;;;5092278;28;20195;-41
2023/04/27 12:12:32;;;;;;;3.75;1.90;;;;;;;;;;5091969;28;20670;-44
2023/04/27 12:15:00;;;;;;;3.20;2.00;;;;;;;;;;5089532;28;20222;-43
2023/04/27 12:17:27;;;;;;;1.90;1.60;;;;;;;;;;5092291;28;20224;-43
2023/04/27 12:19:54;;;;;;;1.92;1.55;;;;;;;;;;5092371;28;20205;-42
2023/04/27 12:22:21;;;;;;;2.53;1.73;;;;;;;;;;5092061;28;20557;-43
2023/04/27 12:24:50;;;;;;;4.07;2.30;;;;;;;;;;5092195;28;20321;-42
2023/04/27 12:27:17;;;;;;;3.00;1.40;;;;;;;;;;5092126;28;20203;-42
2023/04/27 12:29:44;;;;;;;1.92;1.60;;;;;;;;;;5092351;28;20205;-42
2023/04/27 12:32:11;;;;;;;2.95;1.60;;;;;;;;;;5091558;28;20591;-42
2023/04/27 12:34:38;;;;;;;2.95;1.75;;;;;;;;;;5092170;28;20242;-42
2023/04/27 12:37:05;;;;;;;2.67;1.55;;;;;;;;;;5090157;28;20229;-44
2023/04/27 12:39:33;;;;;;;3.55;1.73;;;;;;;;;;5084370;28;20931;-44
2023/04/27 12:42:01;;;;;;;2.47;1.55;;;;;;;;;;5089109;28;20211;-44
2023/04/27 12:44:28;;;;;;;3.47;2.13;;;;;;;;;;5090945;28;20249;-42
2023/04/27 12:46:55;;;;;;;2.25;1.60;;;;;;;;;;5089081;28;20272;-42
2023/04/27 12:49:22;;;;;;;3.10;1.50;;;;;;;;;;5089818;28;20222;-42
2023/04/27 12:51:51;;;;;;;1.92;1.48;;;;;;;;;;5090791;28;20620;-42
2023/04/27 12:54:18;;;;;;;2.08;1.55;;;;;;;;;;5088269;28;20226;-42
2023/04/27 12:56:46;;;;;;;3.63;1.52;;;;;;;;;;5088571;28;20289;-42
2023/04/27 12:59:13;;;;;;;2.30;1.48;;;;;;;;;;5091020;28;20721;-42
2023/04/27 13:01:40;;;;;;;2.65;1.83;;;;;;;;;;5091738;28;20222;-41
2023/04/27 13:04:08;;;;;;;2.78;1.50;;;;;;;;;;5091132;28;20682;-42
2023/04/27 13:06:35;;;;;;;1.95;1.42;;;;;;;;;;5093880;28;20218;-41
2023/04/27 13:09:02;;;;;;;4.05;1.83;;;;;;;;;;5094453;28;20229;-41
2023/04/27 13:11:30;;;;;;;2.50;1.63;;;;;;;;;;5092101;28;20222;-41
2023/04/27 13:13:58;;;;;;;1.60;1.50;;;;;;;;;;5094265;28;20218;-42
2023/04/27 13:16:25;;;;;;;2.75;1.52;;;;;;;;;;5093671;28;20222;-43
2023/04/27 13:18:54;;;;;;;3.22;1.58;;;;;;;;;;5093952;28;20222;-41
2023/04/27 13:21:22;;;;;;;2.20;1.65;;;;;;;;;;5091693;28;20226;-42
2023/04/27 13:23:52;;;;;;;1.77;1.63;;;;;;;;;;5093085;28;20268;-41
2023/04/27 13:26:19;;;;;;;1.92;1.40;;;;;;;;;;5091031;28;20211;-42
2023/04/27 13:28:47;;;;;;;4.97;2.00;;;;;;;;;;5090526;28;20218;-42
2023/04/27 13:31:14;;;;;;;2.88;1.50;;;;;;;;;;5093286;28;20222;-41
2023/04/27 13:33:42;;;;;;;3.92;2.05;;;;;;;;;;5093960;28;20217;-42
2023/04/27 13:36:10;;;;;;;2.67;1.60;;;;;;;;;;5093988;28;20225;-42
2023/04/27 13:38:38;;;;;;;4.43;1.48;;;;;;;;;;5094020;28;20270;-42
2023/04/27 13:41:05;;;;;;;4.65;1.90;;;;;;;;;;5094190;28;20607;-44
2023/04/27 13:43:33;;;;;;;3.78;1.50;;;;;;;;;;5094705;28;20229;-43
2023/04/27 13:46:01;;;;;;;4.63;1.90;;;;;;;;;;5093751;28;20215;-42
2023/04/27 13:48:29;;;;;;;6.57;1.85;;;;;;;;;;5093427;28;20934;-42
2023/04/27 13:50:56;;;;;;;3.28;1.90;;;;;;;;;;5086959;28;20222;-42
2023/04/27 13:53:24;;;;;;;2.65;1.77;;;;;;;;;;5091642;28;20227;-42
2023/04/27 13:55:53;;;;;;;3.28;1.83;;;;;;;;;;5094327;28;20234;-42
2023/04/27 13:58:21;;;;;;;4.32;2.17;;;;;;;;;;5092014;28;20622;-42
2023/04/27 14:00:52;;;;;;;3.50;2.13;;;;;;;;;;5091237;28;20218;-42
2023/04/27 14:03:21;;;;;;;3.85;2.33;;;;;;;;;;5094947;28;20222;-42
2023/04/27 14:05:50;;;;;;;3.33;2.05;;;;;;;;;;5095524;28;20237;-42
2023/04/27 14:08:18;;;;;;;3.72;2.53;;;;;;;;;;5094657;28;20226;-42
2023/04/27 14:10:45;;;;;;;2.38;1.77;;;;;;;;;;5094700;28;20619;-42
2023/04/27 14:13:13;;;;;;;2.80;1.75;;;;;;;;;;5093800;28;20588;-42
2023/04/27 14:15:40;;;;;;;3.38;2.05;;;;;;;;;;5094958;28;20283;-42
2023/04/27 14:18:08;;;;;;;3.17;1.98;;;;;;;;;;5093364;28;20239;-41
2023/04/27 14:20:36;;;;;;;3.47;2.20;;;;;;;;;;5093931;28;20612;-41
2023/04/27 14:23:05;;;;;;;2.53;2.08;;;;;;;;;;5093301;28;20229;-44
2023/04/27 14:25:33;;;;;;;3.40;1.48;;;;;;;;;;5084360;28;20227;-42
2023/04/27 14:28:05;;;;;;;2.90;1.80;;;;;;;;;;5083820;28;20222;-42
2023/04/27 14:30:32;;;;;;;2.67;1.58;;;;;;;;;;5093942;28;20238;-42
2023/04/27 14:33:00;;;;;;;2.25;1.52;;;;;;;;;;5087950;28;20215;-42
2023/04/27 14:35:27;;;;;;;1.75;1.60;;;;;;;;;;5090363;28;20231;-42
2023/04/27 14:37:55;;;;;;;1.83;1.55;;;;;;;;;;5092258;28;20226;-42
2023/04/27 14:40:23;;;;;;;3.08;2.05;;;;;;;;;;5092499;28;20256;-42
2023/04/27 14:42:50;;;;;;;2.75;1.67;;;;;;;;;;5090532;28;20218;-42
2023/04/27 14:45:17;;;;;;;4.25;2.00;;;;;;;;;;5092422;28;20653;-41
2023/04/27 14:47:45;;;;;;;3.30;1.73;;;;;;;;;;5091536;28;20701;-42
2023/04/27 14:50:12;;;;;;;3.45;1.73;;;;;;;;;;5094522;28;20264;-42
2023/04/27 14:52:39;;;;;;;2.33;1.80;;;;;;;;;;5093120;28;20655;-42